Time;durP1;ratioP1;P1;durP2;ratioP2;P2;SDS_P1;SDS_P2;PMS_P1;PMS_P2;Temp;Humidity;BMP_temperature;BMP_pressure;BME280_temperature;BME280_humidity;BME280_pressure;Samples;Min_cycle;Max_cycle;Signal;HPM_P1;HPM_P2
2021/04/27 00:01:45;;;;;;;16.80;8.23;;;;;;;;;;5052942;28;20063;-65
2021/04/27 00:04:10;;;;;;;18.80;7.55;;;;;;;;;;5052475;28;20021;-65
2021/04/27 00:06:35;;;;;;;16.63;8.38;;;;;;;;;;5052897;28;20477;-65
2021/04/27 00:09:01;;;;;;;18.50;7.85;;;;;;;;;;5052843;28;20386;-65
2021/04/27 00:11:26;;;;;;;16.95;7.80;;;;;;;;;;5053030;28;20358;-65
2021/04/27 00:13:51;;;;;;;22.27;7.90;;;;;;;;;;5052788;28;20040;-64
2021/04/27 00:16:17;;;;;;;20.33;8.27;;;;;;;;;;5052839;28;20037;-65
2021/04/27 00:18:43;;;;;;;18.48;8.43;;;;;;;;;;5052358;28;20023;-65
2021/04/27 00:21:08;;;;;;;23.98;9.25;;;;;;;;;;5052734;28;20099;-64
2021/04/27 00:23:33;;;;;;;15.77;7.63;;;;;;;;;;5052572;28;20086;-65
2021/04/27 00:25:59;;;;;;;21.35;8.50;;;;;;;;;;5052751;28;20100;-65
2021/04/27 00:28:24;;;;;;;18.15;8.38;;;;;;;;;;5052496;28;20378;-65
2021/04/27 00:30:50;;;;;;;23.55;8.18;;;;;;;;;;5052760;28;20120;-65
2021/04/27 00:33:16;;;;;;;17.35;8.13;;;;;;;;;;5052574;28;20021;-64
2021/04/27 00:35:41;;;;;;;16.70;8.25;;;;;;;;;;5052509;28;20040;-65
2021/04/27 00:38:06;;;;;;;17.33;8.65;;;;;;;;;;5055338;28;20827;-65
2021/04/27 00:40:32;;;;;;;19.10;7.90;;;;;;;;;;5055924;28;20127;-65
2021/04/27 00:42:58;;;;;;;17.80;8.00;;;;;;;;;;5056234;28;20033;-65
2021/04/27 00:45:24;;;;;;;20.27;8.05;;;;;;;;;;5056163;28;20476;-65
2021/04/27 00:47:50;;;;;;;15.90;8.15;;;;;;;;;;5055875;28;20739;-65
2021/04/27 00:50:18;;;;;;;24.70;8.93;;;;;;;;;;5056318;28;20110;-65
2021/04/27 00:52:44;;;;;;;23.73;9.13;;;;;;;;;;5055756;28;20032;-65
2021/04/27 00:55:10;;;;;;;21.65;10.18;;;;;;;;;;5056107;28;20044;-64
2021/04/27 00:57:36;;;;;;;21.60;9.15;;;;;;;;;;5054654;28;20045;-64
2021/04/27 01:00:03;;;;;;;26.85;9.75;;;;;;;;;;5055906;28;20111;-65
2021/04/27 01:02:28;;;;;;;21.58;8.48;;;;;;;;;;5055852;28;20031;-64
2021/04/27 01:04:54;;;;;;;19.00;9.25;;;;;;;;;;5055544;28;20103;-64
2021/04/27 01:07:20;;;;;;;23.75;9.55;;;;;;;;;;5055906;28;20033;-65
2021/04/27 01:09:49;;;;;;;23.77;9.02;;;;;;;;;;5055681;28;20032;-64
2021/04/27 01:12:26;;;;;;;19.15;9.05;;;;;;;;;;5055781;28;20036;-65
2021/04/27 01:14:56;;;;;;;20.55;8.95;;;;;;;;;;5055367;28;20029;-65
2021/04/27 01:17:22;;;;;;;22.42;9.23;;;;;;;;;;5055542;28;20107;-64
2021/04/27 01:19:55;;;;;;;25.30;9.10;;;;;;;;;;5055578;28;20024;-64
2021/04/27 01:22:27;;;;;;;24.52;9.77;;;;;;;;;;5055157;28;20075;-65
2021/04/27 01:24:54;;;;;;;23.15;8.85;;;;;;;;;;5055477;28;20036;-65
2021/04/27 01:27:19;;;;;;;20.52;9.25;;;;;;;;;;5055586;28;20082;-65
2021/04/27 01:29:45;;;;;;;24.65;9.70;;;;;;;;;;5055345;28;20021;-65
2021/04/27 01:32:11;;;;;;;25.15;10.63;;;;;;;;;;5055505;28;20033;-64
2021/04/27 01:34:38;;;;;;;25.02;9.88;;;;;;;;;;5055200;28;20033;-64
2021/04/27 01:37:05;;;;;;;33.30;9.32;;;;;;;;;;5055152;28;20032;-64
2021/04/27 01:39:30;;;;;;;24.42;9.43;;;;;;;;;;5055063;28;20076;-64
2021/04/27 01:41:59;;;;;;;35.05;11.85;;;;;;;;;;5054940;28;20547;-64
2021/04/27 01:44:24;;;;;;;21.17;9.60;;;;;;;;;;5055021;28;20021;-65
2021/04/27 01:46:51;;;;;;;20.77;10.13;;;;;;;;;;5055162;28;20568;-64
2021/04/27 01:49:17;;;;;;;21.80;9.88;;;;;;;;;;5054659;28;20033;-65
2021/04/27 01:51:42;;;;;;;27.98;10.60;;;;;;;;;;5055060;28;20021;-64
2021/04/27 01:54:08;;;;;;;24.02;10.02;;;;;;;;;;5054895;28;20059;-65
2021/04/27 01:56:34;;;;;;;25.58;10.43;;;;;;;;;;5054576;28;20465;-65
2021/04/27 01:58:59;;;;;;;20.73;9.32;;;;;;;;;;5054487;28;20023;-64
2021/04/27 02:01:25;;;;;;;29.98;10.05;;;;;;;;;;5054448;28;20037;-65
2021/04/27 02:03:50;;;;;;;21.70;10.55;;;;;;;;;;5054630;28;20104;-64
2021/04/27 02:06:16;;;;;;;21.73;9.32;;;;;;;;;;5054825;28;20373;-65
2021/04/27 02:08:46;;;;;;;29.67;10.65;;;;;;;;;;5054232;28;20036;-65
2021/04/27 02:11:11;;;;;;;24.08;10.00;;;;;;;;;;5055064;28;20029;-64
2021/04/27 02:13:37;;;;;;;25.40;10.32;;;;;;;;;;5054319;28;20036;-64
2021/04/27 02:16:03;;;;;;;24.90;10.85;;;;;;;;;;5054294;28;20094;-65
2021/04/27 02:18:36;;;;;;;25.05;9.20;;;;;;;;;;5054398;28;20036;-65
2021/04/27 02:21:02;;;;;;;24.95;10.73;;;;;;;;;;5054508;28;20373;-64
2021/04/27 02:23:31;;;;;;;23.75;10.02;;;;;;;;;;5054320;28;20017;-65
2021/04/27 02:25:58;;;;;;;26.92;10.32;;;;;;;;;;5054133;28;20390;-64
2021/04/27 02:28:23;;;;;;;19.48;8.85;;;;;;;;;;5054197;28;20037;-64
2021/04/27 02:30:49;;;;;;;21.55;9.40;;;;;;;;;;5054398;28;20013;-64
2021/04/27 02:33:15;;;;;;;26.17;10.63;;;;;;;;;;5054117;28;20098;-65
2021/04/27 02:35:41;;;;;;;25.50;10.02;;;;;;;;;;5053999;28;20031;-65
2021/04/27 02:38:06;;;;;;;20.58;8.98;;;;;;;;;;5054140;28;20370;-64
2021/04/27 02:40:31;;;;;;;29.38;10.25;;;;;;;;;;5053497;28;20139;-64
2021/04/27 02:42:58;;;;;;;27.15;11.10;;;;;;;;;;5053793;28;20033;-64
2021/04/27 02:45:32;;;;;;;22.98;10.50;;;;;;;;;;5053886;28;20044;-64
2021/04/27 02:48:06;;;;;;;23.48;10.75;;;;;;;;;;5054051;28;20426;-64
2021/04/27 02:50:31;;;;;;;29.77;11.50;;;;;;;;;;5053777;28;20033;-65
2021/04/27 02:52:56;;;;;;;32.72;11.25;;;;;;;;;;5053946;28;20037;-65
2021/04/27 02:55:22;;;;;;;28.73;10.75;;;;;;;;;;5053680;28;20021;-65
2021/04/27 02:57:47;;;;;;;27.05;10.45;;;;;;;;;;5053727;28;20051;-64
2021/04/27 03:00:12;;;;;;;23.15;10.45;;;;;;;;;;5052979;28;20059;-64
2021/04/27 03:02:38;;;;;;;23.38;10.05;;;;;;;;;;5052367;28;20025;-65
2021/04/27 03:05:03;;;;;;;26.75;10.68;;;;;;;;;;5053522;28;20040;-64
2021/04/27 03:07:29;;;;;;;34.10;11.60;;;;;;;;;;5053667;28;20096;-65
2021/04/27 03:09:54;;;;;;;26.95;10.60;;;;;;;;;;5053204;28;20541;-65
2021/04/27 03:12:19;;;;;;;31.63;11.57;;;;;;;;;;5053277;28;20059;-64
2021/04/27 03:14:44;;;;;;;28.45;11.23;;;;;;;;;;5053342;28;20119;-64
2021/04/27 03:17:10;;;;;;;32.75;13.23;;;;;;;;;;5052198;28;20134;-65
2021/04/27 03:19:35;;;;;;;28.25;11.02;;;;;;;;;;5053010;28;20086;-64
2021/04/27 03:22:00;;;;;;;25.55;10.18;;;;;;;;;;5052221;28;20091;-64
2021/04/27 03:24:26;;;;;;;28.35;10.82;;;;;;;;;;5053178;28;20453;-64
2021/04/27 03:26:51;;;;;;;34.25;10.88;;;;;;;;;;5053124;28;20103;-64
2021/04/27 03:29:16;;;;;;;31.27;10.70;;;;;;;;;;5053202;28;20036;-64
2021/04/27 03:31:41;;;;;;;26.20;10.65;;;;;;;;;;5053236;28;20075;-65
2021/04/27 03:34:07;;;;;;;28.63;10.40;;;;;;;;;;5053182;28;20055;-64
2021/04/27 03:36:32;;;;;;;26.98;10.52;;;;;;;;;;5053042;28;20040;-65
2021/04/27 03:38:58;;;;;;;28.85;10.55;;;;;;;;;;5052984;28;20019;-64
2021/04/27 03:41:23;;;;;;;26.88;11.35;;;;;;;;;;5053087;28;20031;-64
2021/04/27 03:43:48;;;;;;;30.88;11.38;;;;;;;;;;5053326;28;20039;-64
2021/04/27 03:46:13;;;;;;;29.08;10.65;;;;;;;;;;5053104;28;20021;-64
2021/04/27 03:48:39;;;;;;;28.95;11.05;;;;;;;;;;5052843;28;20056;-65
2021/04/27 03:51:04;;;;;;;25.50;10.30;;;;;;;;;;5053115;28;20033;-64
2021/04/27 03:53:29;;;;;;;27.58;10.43;;;;;;;;;;5052920;28;20023;-64
2021/04/27 03:55:55;;;;;;;32.20;9.38;;;;;;;;;;5052936;28;20041;-64
2021/04/27 03:58:20;;;;;;;23.92;9.25;;;;;;;;;;5053113;28;20061;-64
2021/04/27 04:00:45;;;;;;;18.83;9.32;;;;;;;;;;5052741;28;20055;-64
2021/04/27 04:03:10;;;;;;;24.20;9.60;;;;;;;;;;5053045;28;20057;-64
2021/04/27 04:05:36;;;;;;;21.27;9.98;;;;;;;;;;5052720;28;20108;-65
2021/04/27 04:08:01;;;;;;;31.38;10.38;;;;;;;;;;5052997;28;20047;-65
2021/04/27 04:10:26;;;;;;;21.60;9.80;;;;;;;;;;5052876;28;20033;-64
2021/04/27 04:12:52;;;;;;;22.23;9.77;;;;;;;;;;5056911;28;20190;-64
2021/04/27 04:15:18;;;;;;;18.92;8.40;;;;;;;;;;5056724;28;20365;-65
2021/04/27 04:17:43;;;;;;;22.80;8.98;;;;;;;;;;5056751;28;20048;-65
2021/04/27 04:20:13;;;;;;;21.42;9.70;;;;;;;;;;5056653;28;20039;-64
2021/04/27 04:22:39;;;;;;;19.80;9.52;;;;;;;;;;5056760;28;20029;-65
2021/04/27 04:25:06;;;;;;;17.48;9.27;;;;;;;;;;5056542;28;20038;-64
2021/04/27 04:27:31;;;;;;;20.20;8.60;;;;;;;;;;5056854;28;20112;-65
2021/04/27 04:29:56;;;;;;;21.08;7.97;;;;;;;;;;5056443;28;20123;-65
2021/04/27 04:32:22;;;;;;;21.50;8.43;;;;;;;;;;5055886;28;20040;-65
2021/04/27 04:34:47;;;;;;;17.13;8.48;;;;;;;;;;5056371;28;20112;-64
2021/04/27 04:37:12;;;;;;;19.48;8.55;;;;;;;;;;5056325;28;20096;-64
2021/04/27 04:39:38;;;;;;;13.88;7.72;;;;;;;;;;5055958;28;20056;-65
2021/04/27 04:42:03;;;;;;;17.05;8.43;;;;;;;;;;5056361;28;20048;-65
2021/04/27 04:44:29;;;;;;;16.83;7.88;;;;;;;;;;5056035;28;20028;-65
2021/04/27 04:46:55;;;;;;;21.88;8.55;;;;;;;;;;5056243;28;20064;-65
2021/04/27 04:49:21;;;;;;;14.60;7.70;;;;;;;;;;5055828;28;20429;-65
2021/04/27 04:51:46;;;;;;;17.30;7.82;;;;;;;;;;5056162;28;20029;-65
2021/04/27 04:54:11;;;;;;;16.40;7.70;;;;;;;;;;5056120;28;20031;-65
2021/04/27 04:56:37;;;;;;;21.80;7.82;;;;;;;;;;5055931;28;20040;-65
2021/04/27 04:59:02;;;;;;;20.73;6.97;;;;;;;;;;5056004;28;20029;-64
2021/04/27 05:01:27;;;;;;;20.90;7.85;;;;;;;;;;5055928;28;20025;-65
2021/04/27 05:03:53;;;;;;;16.67;6.90;;;;;;;;;;5055913;28;20041;-65
2021/04/27 05:06:19;;;;;;;14.27;7.30;;;;;;;;;;5055670;28;20017;-65
2021/04/27 05:08:48;;;;;;;13.63;7.45;;;;;;;;;;5055750;28;20159;-65
2021/04/27 05:11:13;;;;;;;17.17;6.93;;;;;;;;;;5054604;28;20048;-65
2021/04/27 05:13:39;;;;;;;15.05;6.72;;;;;;;;;;5055591;28;20025;-65
2021/04/27 05:16:04;;;;;;;16.08;7.13;;;;;;;;;;5055740;28;20051;-65
2021/04/27 05:18:30;;;;;;;15.52;6.80;;;;;;;;;;5055660;28;20044;-65
2021/04/27 05:20:55;;;;;;;19.13;6.75;;;;;;;;;;5055599;28;20024;-65
2021/04/27 05:23:22;;;;;;;11.52;6.25;;;;;;;;;;5054624;28;20029;-65
2021/04/27 05:25:48;;;;;;;13.82;6.20;;;;;;;;;;5055436;28;20032;-65
2021/04/27 05:28:13;;;;;;;15.00;6.68;;;;;;;;;;5055593;28;20423;-65
2021/04/27 05:30:38;;;;;;;13.60;6.45;;;;;;;;;;5055000;28;20033;-65
2021/04/27 05:33:04;;;;;;;13.82;5.45;;;;;;;;;;5055506;28;20033;-64
2021/04/27 05:35:29;;;;;;;13.13;6.30;;;;;;;;;;5055238;28;20021;-65
2021/04/27 05:37:54;;;;;;;13.15;6.28;;;;;;;;;;5054876;28;20048;-65
2021/04/27 05:40:20;;;;;;;13.48;5.65;;;;;;;;;;5054876;28;20132;-65
2021/04/27 05:42:45;;;;;;;10.85;5.78;;;;;;;;;;5055420;28;20017;-65
2021/04/27 05:45:11;;;;;;;11.82;6.50;;;;;;;;;;5054886;28;20033;-65
2021/04/27 05:47:36;;;;;;;12.23;7.20;;;;;;;;;;5054789;28;20074;-65
2021/04/27 05:50:01;;;;;;;11.10;5.28;;;;;;;;;;5054980;28;20017;-65
2021/04/27 05:52:27;;;;;;;12.75;5.78;;;;;;;;;;5055007;28;20025;-65
2021/04/27 05:54:52;;;;;;;10.93;5.93;;;;;;;;;;5054960;28;20048;-65
2021/04/27 05:57:17;;;;;;;13.93;6.78;;;;;;;;;;5054922;28;20025;-65
2021/04/27 05:59:43;;;;;;;13.80;5.22;;;;;;;;;;5054709;28;20414;-65
2021/04/27 06:02:08;;;;;;;11.73;5.10;;;;;;;;;;5054937;28;20029;-65
2021/04/27 06:04:33;;;;;;;10.30;5.00;;;;;;;;;;5054638;28;20032;-65
2021/04/27 06:06:58;;;;;;;11.25;5.30;;;;;;;;;;5054928;28;20029;-65
2021/04/27 06:09:25;;;;;;;10.45;4.32;;;;;;;;;;5054549;28;20037;-65
2021/04/27 06:11:53;;;;;;;11.93;4.47;;;;;;;;;;5054715;28;20017;-65
2021/04/27 06:14:18;;;;;;;9.60;4.60;;;;;;;;;;5054560;28;20049;-65
2021/04/27 06:16:43;;;;;;;7.70;5.18;;;;;;;;;;5054477;28;20083;-65
2021/04/27 06:19:09;;;;;;;12.00;5.22;;;;;;;;;;5054516;28;20021;-65
2021/04/27 06:21:34;;;;;;;20.13;10.50;;;;;;;;;;5054425;28;20431;-65
2021/04/27 06:23:59;;;;;;;19.95;10.63;;;;;;;;;;5054108;28;20044;-65
2021/04/27 06:26:25;;;;;;;21.83;10.25;;;;;;;;;;5054358;28;20103;-65
2021/04/27 06:28:50;;;;;;;14.23;8.43;;;;;;;;;;5054415;28;20032;-65
2021/04/27 06:31:17;;;;;;;10.35;6.80;;;;;;;;;;5054203;28;20037;-65
2021/04/27 06:33:42;;;;;;;7.65;5.00;;;;;;;;;;5053893;28;20032;-65
2021/04/27 06:36:08;;;;;;;15.73;5.43;;;;;;;;;;5053233;28;20037;-65
2021/04/27 06:38:33;;;;;;;10.63;5.22;;;;;;;;;;5054066;28;20551;-65
2021/04/27 06:40:58;;;;;;;9.20;5.68;;;;;;;;;;5054090;28;20041;-65
2021/04/27 06:43:23;;;;;;;12.85;5.45;;;;;;;;;;5054014;28;20025;-65
2021/04/27 06:45:49;;;;;;;12.20;4.85;;;;;;;;;;5053946;28;20033;-65
2021/04/27 06:48:14;;;;;;;10.07;5.03;;;;;;;;;;5054302;28;20017;-65
2021/04/27 06:50:41;;;;;;;10.95;4.95;;;;;;;;;;5053707;28;20033;-65
2021/04/27 06:53:08;;;;;;;9.32;4.70;;;;;;;;;;5053586;28;20478;-66
2021/04/27 06:55:33;;;;;;;8.07;6.00;;;;;;;;;;5053984;28;20099;-65
2021/04/27 06:58:04;;;;;;;13.88;5.03;;;;;;;;;;5054081;28;20128;-65
2021/04/27 07:00:30;;;;;;;10.68;4.30;;;;;;;;;;5053598;28;20036;-65
2021/04/27 07:02:55;;;;;;;10.38;4.72;;;;;;;;;;5053670;28;20108;-66
2021/04/27 07:05:20;;;;;;;8.90;4.88;;;;;;;;;;5053620;28;20477;-66
2021/04/27 07:07:46;;;;;;;9.48;3.95;;;;;;;;;;5053595;28;20037;-66
2021/04/27 07:10:11;;;;;;;8.45;3.95;;;;;;;;;;5053474;28;20481;-66
2021/04/27 07:12:36;;;;;;;12.60;4.93;;;;;;;;;;5053156;28;20033;-65
2021/04/27 07:15:02;;;;;;;8.93;4.72;;;;;;;;;;5053262;28;20033;-66
2021/04/27 07:17:27;;;;;;;8.77;5.32;;;;;;;;;;5044478;28;20036;-65
2021/04/27 07:19:54;;;;;;;12.80;6.25;;;;;;;;;;5051705;28;20037;-66
2021/04/27 07:22:19;;;;;;;10.45;4.68;;;;;;;;;;5052082;28;20148;-65
2021/04/27 07:24:45;;;;;;;11.57;4.80;;;;;;;;;;5052663;28;20140;-66
2021/04/27 07:27:10;;;;;;;9.75;5.30;;;;;;;;;;5052499;28;20036;-66
2021/04/27 07:29:35;;;;;;;14.77;5.22;;;;;;;;;;5047564;28;20078;-66
2021/04/27 07:32:00;;;;;;;10.50;6.18;;;;;;;;;;5052690;28;20013;-66
2021/04/27 07:34:26;;;;;;;17.08;7.03;;;;;;;;;;5052988;28;20453;-66
2021/04/27 07:36:51;;;;;;;10.40;6.03;;;;;;;;;;5053055;28;20041;-66
2021/04/27 07:39:17;;;;;;;13.77;5.70;;;;;;;;;;5052543;28;20048;-66
2021/04/27 07:41:42;;;;;;;15.52;7.97;;;;;;;;;;5053080;28;20099;-66
2021/04/27 07:44:08;;;;;;;14.38;7.03;;;;;;;;;;5052949;28;20033;-66
2021/04/27 07:46:34;;;;;;;10.95;7.15;;;;;;;;;;5052743;28;20025;-66
2021/04/27 07:48:59;;;;;;;14.00;7.25;;;;;;;;;;5053077;28;20033;-66
2021/04/27 07:51:24;;;;;;;15.35;8.18;;;;;;;;;;5052629;28;20044;-66
2021/04/27 07:53:50;;;;;;;15.68;7.57;;;;;;;;;;5052975;28;20061;-64
2021/04/27 07:56:15;;;;;;;14.63;8.48;;;;;;;;;;5052989;28;20362;-64
2021/04/27 07:58:40;;;;;;;14.88;8.90;;;;;;;;;;5052916;28;20029;-65
2021/04/27 08:01:06;;;;;;;15.07;8.88;;;;;;;;;;5052888;28;20492;-65
2021/04/27 08:03:31;;;;;;;17.42;9.90;;;;;;;;;;5052879;28;20029;-65
2021/04/27 08:05:56;;;;;;;19.13;9.45;;;;;;;;;;5052844;28;20033;-65
2021/04/27 08:08:22;;;;;;;16.05;9.85;;;;;;;;;;5052888;28;20017;-65
2021/04/27 08:10:48;;;;;;;13.32;9.55;;;;;;;;;;5052761;28;20029;-65
2021/04/27 08:13:13;;;;;;;12.60;8.70;;;;;;;;;;5052888;28;20370;-65
2021/04/27 08:15:38;;;;;;;15.25;9.45;;;;;;;;;;5052753;28;20047;-65
2021/04/27 08:18:04;;;;;;;14.05;9.63;;;;;;;;;;5052402;28;20436;-65
2021/04/27 08:20:31;;;;;;;17.60;10.13;;;;;;;;;;5052518;28;20029;-65
2021/04/27 08:22:56;;;;;;;18.55;10.60;;;;;;;;;;5045673;28;20048;-65
2021/04/27 08:25:22;;;;;;;15.48;9.40;;;;;;;;;;5047051;28;20497;-65
2021/04/27 08:27:48;;;;;;;17.15;9.18;;;;;;;;;;5047765;28;20037;-65
2021/04/27 08:30:14;;;;;;;14.95;9.70;;;;;;;;;;5047569;28;20033;-65
2021/04/27 08:32:40;;;;;;;20.77;9.82;;;;;;;;;;5045360;28;20033;-65
2021/04/27 08:35:06;;;;;;;18.58;9.98;;;;;;;;;;5044098;28;20388;-65
2021/04/27 08:37:32;;;;;;;15.90;10.55;;;;;;;;;;5044925;28;20033;-65
2021/04/27 08:39:57;;;;;;;22.67;10.32;;;;;;;;;;5045142;28;20490;-65
2021/04/27 08:42:23;;;;;;;15.77;10.55;;;;;;;;;;5045518;28;20120;-65
2021/04/27 08:44:49;;;;;;;20.52;11.20;;;;;;;;;;5045703;28;20029;-65
2021/04/27 08:47:14;;;;;;;18.23;10.48;;;;;;;;;;5044838;28;20040;-65
2021/04/27 08:49:39;;;;;;;19.23;11.38;;;;;;;;;;5045411;28;20043;-65
2021/04/27 08:52:05;;;;;;;24.88;11.32;;;;;;;;;;5045714;28;20025;-65
2021/04/27 08:54:31;;;;;;;17.92;11.07;;;;;;;;;;5043496;28;20084;-65
2021/04/27 08:56:56;;;;;;;21.02;11.85;;;;;;;;;;5040167;28;20049;-65
2021/04/27 08:59:22;;;;;;;19.23;12.00;;;;;;;;;;5047560;28;20044;-65
2021/04/27 09:01:47;;;;;;;17.50;12.23;;;;;;;;;;5048639;28;20378;-65
2021/04/27 09:04:14;;;;;;;20.92;12.52;;;;;;;;;;5047841;28;20366;-65
2021/04/27 09:06:40;;;;;;;16.70;11.15;;;;;;;;;;5047987;28;20131;-65
2021/04/27 09:09:06;;;;;;;16.42;10.98;;;;;;;;;;5048586;28;20504;-64
2021/04/27 09:11:31;;;;;;;19.23;11.95;;;;;;;;;;5053447;28;20382;-65
2021/04/27 09:14:16;;;;;;;16.83;11.98;;;;;;;;;;5053143;28;20056;-67
2021/04/27 09:16:46;;;;;;;17.13;10.73;;;;;;;;;;5052696;28;20068;-67
2021/04/27 09:19:26;;;;;;;24.00;12.48;;;;;;;;;;5049341;28;20040;-67
2021/04/27 09:21:59;;;;;;;17.27;12.30;;;;;;;;;;5052663;28;20025;-67
2021/04/27 09:24:24;;;;;;;24.23;13.70;;;;;;;;;;5051620;28;20516;-67
2021/04/27 09:26:52;;;;;;;27.05;13.75;;;;;;;;;;5050345;28;20025;-67
2021/04/27 09:29:34;;;;;;;22.75;14.07;;;;;;;;;;5043507;28;20743;-67
2021/04/27 09:32:00;;;;;;;23.88;15.00;;;;;;;;;;5051848;28;20033;-67
2021/04/27 09:34:32;;;;;;;23.63;14.98;;;;;;;;;;5051525;28;20087;-67
2021/04/27 09:36:59;;;;;;;22.25;14.40;;;;;;;;;;5051355;28;20396;-67
2021/04/27 09:39:31;;;;;;;24.40;16.13;;;;;;;;;;5039129;28;20052;-67
2021/04/27 09:42:16;;;;;;;24.10;14.50;;;;;;;;;;5044900;28;20495;-67
2021/04/27 09:44:45;;;;;;;23.17;15.00;;;;;;;;;;5034903;28;20032;-66
2021/04/27 09:47:11;;;;;;;27.92;15.23;;;;;;;;;;5046861;28;20037;-66
2021/04/27 09:49:36;;;;;;;24.33;15.80;;;;;;;;;;5047442;28;20021;-67
2021/04/27 09:52:06;;;;;;;28.20;16.60;;;;;;;;;;5048296;28;20039;-67
2021/04/27 09:54:31;;;;;;;26.50;15.00;;;;;;;;;;5046638;28;20028;-67
2021/04/27 09:56:59;;;;;;;27.55;17.05;;;;;;;;;;5046021;28;20045;-67
2021/04/27 09:59:28;;;;;;;29.25;15.30;;;;;;;;;;5046342;28;20040;-67
2021/04/27 10:02:01;;;;;;;26.08;15.45;;;;;;;;;;5047218;28;20180;-67
2021/04/27 10:04:27;;;;;;;27.33;14.35;;;;;;;;;;5047196;28;20029;-67
2021/04/27 10:06:52;;;;;;;26.50;15.82;;;;;;;;;;5047847;28;20041;-67
2021/04/27 10:09:18;;;;;;;29.90;15.68;;;;;;;;;;5046456;28;20025;-67
2021/04/27 10:11:44;;;;;;;26.52;14.30;;;;;;;;;;5047512;28;20128;-67
2021/04/27 10:14:10;;;;;;;30.35;14.32;;;;;;;;;;5046144;28;20029;-67
2021/04/27 10:16:36;;;;;;;25.10;15.10;;;;;;;;;;5047008;28;20079;-67
2021/04/27 10:19:02;;;;;;;23.15;15.23;;;;;;;;;;5046881;28;20106;-67
2021/04/27 10:21:29;;;;;;;21.88;14.77;;;;;;;;;;5047329;28;20043;-67
2021/04/27 10:24:00;;;;;;;24.20;14.82;;;;;;;;;;5047009;28;20377;-67
2021/04/27 10:26:27;;;;;;;26.17;15.50;;;;;;;;;;5047660;28;20029;-67
2021/04/27 10:29:11;;;;;;;27.15;15.10;;;;;;;;;;5046712;28;20041;-67
2021/04/27 10:31:40;;;;;;;22.27;14.52;;;;;;;;;;5041992;28;20509;-67
2021/04/27 10:34:06;;;;;;;23.67;14.05;;;;;;;;;;5046449;28;20496;-67
2021/04/27 10:36:52;;;;;;;23.45;14.20;;;;;;;;;;5046951;28;20025;-67
2021/04/27 10:39:34;;;;;;;22.35;14.20;;;;;;;;;;5034493;28;20055;-67
2021/04/27 10:41:59;;;;;;;23.17;12.75;;;;;;;;;;5047335;28;20044;-67
2021/04/27 10:44:25;;;;;;;23.13;13.98;;;;;;;;;;5047271;28;20025;-67
2021/04/27 10:46:55;;;;;;;30.08;13.45;;;;;;;;;;5046675;28;20032;-67
2021/04/27 10:49:32;;;;;;;21.92;13.80;;;;;;;;;;5045972;28;20531;-67
2021/04/27 10:51:58;;;;;;;24.15;12.75;;;;;;;;;;5045964;28;20037;-67
2021/04/27 10:54:24;;;;;;;21.65;10.73;;;;;;;;;;5046201;28;20444;-67
2021/04/27 10:56:52;;;;;;;19.83;10.80;;;;;;;;;;5046031;28;20082;-66
2021/04/27 10:59:21;;;;;;;14.40;9.63;;;;;;;;;;5045794;28;20500;-67
2021/04/27 11:01:48;;;;;;;15.25;8.75;;;;;;;;;;5046229;28;20060;-67
2021/04/27 11:04:29;;;;;;;21.42;10.15;;;;;;;;;;5046842;28;20059;-67
2021/04/27 11:07:14;;;;;;;16.80;10.57;;;;;;;;;;5045133;28;20060;-67
2021/04/27 11:09:39;;;;;;;22.65;11.13;;;;;;;;;;5045723;28;20041;-67
2021/04/27 11:12:23;;;;;;;18.38;11.68;;;;;;;;;;5046288;28;20086;-67
2021/04/27 11:15:01;;;;;;;22.20;11.23;;;;;;;;;;5046716;28;20040;-67
2021/04/27 11:17:28;;;;;;;22.63;10.70;;;;;;;;;;5046249;28;20052;-67
2021/04/27 11:19:53;;;;;;;25.88;11.55;;;;;;;;;;5045333;28;20056;-67
2021/04/27 11:22:29;;;;;;;20.10;11.98;;;;;;;;;;5046075;28;20453;-67
2021/04/27 11:24:55;;;;;;;16.58;10.27;;;;;;;;;;5046251;28;20131;-67
2021/04/27 11:27:29;;;;;;;24.70;11.05;;;;;;;;;;5044139;28;20036;-67
2021/04/27 11:29:59;;;;;;;19.88;11.68;;;;;;;;;;5045519;28;20036;-67
2021/04/27 11:32:25;;;;;;;21.42;10.43;;;;;;;;;;5045548;28;20025;-67
2021/04/27 11:34:54;;;;;;;13.18;6.93;;;;;;;;;;5045131;28;20020;-67
2021/04/27 11:37:33;;;;;;;17.67;5.68;;;;;;;;;;5045858;28;20488;-67
2021/04/27 11:39:59;;;;;;;8.13;4.15;;;;;;;;;;5044943;28;20087;-67
2021/04/27 11:42:31;;;;;;;8.50;4.25;;;;;;;;;;5044581;28;20064;-66
2021/04/27 11:44:58;;;;;;;8.00;4.13;;;;;;;;;;5045481;28;20090;-66
2021/04/27 11:47:24;;;;;;;9.10;3.67;;;;;;;;;;5044527;28;20413;-66
2021/04/27 11:49:51;;;;;;;12.82;4.32;;;;;;;;;;5044704;28;20039;-66
2021/04/27 11:52:35;;;;;;;7.68;4.07;;;;;;;;;;5045854;28;20060;-66
2021/04/27 11:55:00;;;;;;;11.57;4.25;;;;;;;;;;5045266;28;20072;-67
2021/04/27 11:57:26;;;;;;;14.13;9.05;;;;;;;;;;5045611;28;20068;-67
2021/04/27 11:59:57;;;;;;;16.65;9.13;;;;;;;;;;5043988;28;20177;-67
2021/04/27 12:02:31;;;;;;;14.80;8.98;;;;;;;;;;5042388;28;20032;-66
2021/04/27 12:04:58;;;;;;;15.45;9.68;;;;;;;;;;5043111;28;20036;-66
2021/04/27 12:07:29;;;;;;;15.95;8.57;;;;;;;;;;5042395;28;20080;-66
2021/04/27 12:09:56;;;;;;;19.42;9.93;;;;;;;;;;5043448;28;20036;-66
2021/04/27 12:12:21;;;;;;;19.63;11.50;;;;;;;;;;5045581;28;20024;-67
2021/04/27 12:14:58;;;;;;;20.85;12.35;;;;;;;;;;5045168;28;20032;-66
2021/04/27 12:17:25;;;;;;;21.10;11.20;;;;;;;;;;5043062;28;20045;-66
2021/04/27 12:20:09;;;;;;;16.35;10.70;;;;;;;;;;5044533;28;20040;-66
2021/04/27 12:22:48;;;;;;;16.80;10.13;;;;;;;;;;5043535;28;20277;-66
2021/04/27 12:25:24;;;;;;;17.35;9.85;;;;;;;;;;5044552;28;20039;-66
2021/04/27 12:27:50;;;;;;;15.05;8.63;;;;;;;;;;5044982;28;20033;-67
2021/04/27 12:30:20;;;;;;;16.17;8.27;;;;;;;;;;5045849;28;20044;-66
2021/04/27 12:32:51;;;;;;;14.63;8.77;;;;;;;;;;5047552;28;20052;-67
2021/04/27 12:35:17;;;;;;;13.02;8.70;;;;;;;;;;5049740;28;20029;-66
2021/04/27 12:37:43;;;;;;;15.30;8.48;;;;;;;;;;5048796;28;20048;-67
2021/04/27 12:40:14;;;;;;;15.15;8.55;;;;;;;;;;5048200;28;20037;-66
2021/04/27 12:42:44;;;;;;;15.35;7.82;;;;;;;;;;5049071;28;20055;-66
2021/04/27 12:45:10;;;;;;;14.73;8.13;;;;;;;;;;5047970;28;20098;-67
2021/04/27 12:47:36;;;;;;;18.15;7.85;;;;;;;;;;5048772;28;20457;-66
2021/04/27 12:50:13;;;;;;;10.93;6.93;;;;;;;;;;5049303;28;20040;-67
2021/04/27 12:52:43;;;;;;;13.07;7.38;;;;;;;;;;5049329;28;20021;-66
2021/04/27 12:55:08;;;;;;;15.02;7.38;;;;;;;;;;5048129;28;20021;-67
2021/04/27 12:57:34;;;;;;;15.20;7.53;;;;;;;;;;5048223;28;20041;-67
2021/04/27 13:00:01;;;;;;;13.93;6.57;;;;;;;;;;5048188;28;20324;-65
2021/04/27 13:02:27;;;;;;;14.40;6.50;;;;;;;;;;5048236;28;20036;-67
2021/04/27 13:04:53;;;;;;;13.45;6.45;;;;;;;;;;5048098;28;20098;-66
2021/04/27 13:07:21;;;;;;;13.90;6.70;;;;;;;;;;5048380;28;20025;-66
2021/04/27 13:09:47;;;;;;;13.10;7.20;;;;;;;;;;5048137;28;20099;-66
2021/04/27 13:12:12;;;;;;;15.75;8.73;;;;;;;;;;5041649;28;20492;-66
2021/04/27 13:14:39;;;;;;;18.27;9.52;;;;;;;;;;5051037;28;20032;-66
2021/04/27 13:17:06;;;;;;;22.77;9.80;;;;;;;;;;5052389;28;20041;-66
2021/04/27 13:19:47;;;;;;;17.92;9.65;;;;;;;;;;5051568;28;20040;-66
2021/04/27 13:22:15;;;;;;;17.80;9.57;;;;;;;;;;5052183;28;20070;-66
2021/04/27 13:24:44;;;;;;;18.55;10.73;;;;;;;;;;5052660;28;20040;-66
2021/04/27 13:27:10;;;;;;;17.77;8.65;;;;;;;;;;5052280;28;20025;-66
2021/04/27 13:29:37;;;;;;;13.95;7.55;;;;;;;;;;5051555;28;20044;-66
2021/04/27 13:32:21;;;;;;;14.15;6.80;;;;;;;;;;5049816;28;20075;-66
2021/04/27 13:34:47;;;;;;;16.70;6.97;;;;;;;;;;5049863;28;20080;-66
2021/04/27 13:37:13;;;;;;;13.75;5.88;;;;;;;;;;5050822;28;20531;-66
2021/04/27 13:39:38;;;;;;;17.83;6.30;;;;;;;;;;5051271;28;20147;-66
2021/04/27 13:42:04;;;;;;;9.63;6.43;;;;;;;;;;5051121;28;20374;-66
2021/04/27 13:44:29;;;;;;;17.23;8.75;;;;;;;;;;5050498;28;20036;-66
2021/04/27 13:46:55;;;;;;;16.05;7.72;;;;;;;;;;5051818;28;20025;-66
2021/04/27 13:49:20;;;;;;;17.98;6.82;;;;;;;;;;5050387;28;20036;-66
2021/04/27 13:51:45;;;;;;;11.90;6.00;;;;;;;;;;5050130;28;20029;-66
2021/04/27 13:54:10;;;;;;;9.07;5.55;;;;;;;;;;5051670;28;20032;-66
2021/04/27 13:56:36;;;;;;;10.27;5.30;;;;;;;;;;5050842;28;20047;-66
2021/04/27 13:59:01;;;;;;;12.38;4.78;;;;;;;;;;5050754;28;20041;-67
2021/04/27 14:01:26;;;;;;;11.27;4.75;;;;;;;;;;5050320;28;20166;-66
2021/04/27 14:03:52;;;;;;;9.07;4.88;;;;;;;;;;5051049;28;20032;-66
2021/04/27 14:06:17;;;;;;;12.48;4.60;;;;;;;;;;5050891;28;20029;-66
2021/04/27 14:08:43;;;;;;;11.80;5.28;;;;;;;;;;5050997;28;20077;-66
2021/04/27 14:11:08;;;;;;;8.05;4.55;;;;;;;;;;5051256;28;20078;-66
2021/04/27 14:13:33;;;;;;;8.95;5.03;;;;;;;;;;5050738;28;20466;-66
2021/04/27 14:15:59;;;;;;;8.85;4.60;;;;;;;;;;5050735;28;20442;-66
2021/04/27 14:18:25;;;;;;;14.95;4.90;;;;;;;;;;5050827;28;20067;-66
2021/04/27 14:20:51;;;;;;;11.43;5.43;;;;;;;;;;5050279;28;20032;-66
2021/04/27 14:23:16;;;;;;;8.93;4.38;;;;;;;;;;5050152;28;20472;-66
2021/04/27 14:25:42;;;;;;;14.27;4.38;;;;;;;;;;5051418;28;20427;-66